Time;durP1;ratioP1;P1;durP2;ratioP2;P2;SDS_P1;SDS_P2;PMS_P1;PMS_P2;Temp;Humidity;BMP_temperature;BMP_pressure;BME280_temperature;BME280_humidity;BME280_pressure;Samples;Min_cycle;Max_cycle;Signal;HPM_P1;HPM_P2
2022/05/28 00:01:03;;;;;;;10.77;2.20;;;;;;;;;;5009953;28;20679;-61
2022/05/28 00:03:28;;;;;;;8.05;2.13;;;;;;;;;;5003026;28;20212;-60
2022/05/28 00:05:53;;;;;;;8.98;2.17;;;;;;;;;;5009612;28;20213;-61
2022/05/28 00:08:19;;;;;;;11.10;2.25;;;;;;;;;;5003147;28;20553;-61
2022/05/28 00:10:44;;;;;;;12.18;2.63;;;;;;;;;;5004753;28;20287;-61
2022/05/28 00:13:09;;;;;;;9.93;2.25;;;;;;;;;;5000540;28;20209;-61
2022/05/28 00:15:35;;;;;;;12.40;2.30;;;;;;;;;;5001477;28;20290;-61
2022/05/28 00:18:01;;;;;;;9.90;1.80;;;;;;;;;;4998561;28;20295;-61
2022/05/28 00:20:26;;;;;;;14.35;2.28;;;;;;;;;;5005880;28;20208;-61
2022/05/28 00:22:51;;;;;;;11.73;1.98;;;;;;;;;;5010592;28;20217;-61
2022/05/28 00:25:17;;;;;;;12.07;2.28;;;;;;;;;;5000504;28;20291;-61
2022/05/28 00:27:42;;;;;;;11.80;2.78;;;;;;;;;;5005099;28;20672;-61
2022/05/28 00:30:08;;;;;;;11.43;2.88;;;;;;;;;;4995316;28;20641;-61
2022/05/28 00:32:33;;;;;;;14.82;2.22;;;;;;;;;;5010926;28;20215;-61
2022/05/28 00:34:58;;;;;;;14.95;2.80;;;;;;;;;;5026250;28;20228;-61
2022/05/28 00:37:24;;;;;;;15.07;2.30;;;;;;;;;;5010056;28;20574;-61
2022/05/28 00:39:49;;;;;;;11.68;2.38;;;;;;;;;;5003851;28;20223;-61
2022/05/28 00:42:14;;;;;;;13.07;2.58;;;;;;;;;;4996167;28;20246;-61
2022/05/28 00:44:40;;;;;;;11.80;2.55;;;;;;;;;;5009766;28;20271;-61
2022/05/28 00:47:05;;;;;;;10.52;2.80;;;;;;;;;;5010688;28;20209;-61
2022/05/28 00:49:30;;;;;;;10.98;2.47;;;;;;;;;;5010434;28;20248;-61
2022/05/28 00:51:59;;;;;;;11.18;2.13;;;;;;;;;;5006975;28;20227;-61
2022/05/28 00:54:24;;;;;;;14.00;2.95;;;;;;;;;;5005217;28;20233;-61
2022/05/28 00:56:49;;;;;;;12.30;2.35;;;;;;;;;;5008214;28;20639;-61
2022/05/28 00:59:15;;;;;;;11.82;2.45;;;;;;;;;;5013482;28;20225;-61
2022/05/28 01:01:41;;;;;;;10.90;2.40;;;;;;;;;;5004077;28;20266;-61
2022/05/28 01:04:11;;;;;;;11.55;2.33;;;;;;;;;;4993292;28;20248;-62
2022/05/28 01:06:46;;;;;;;11.50;2.33;;;;;;;;;;5005773;28;20213;-61
2022/05/28 01:09:20;;;;;;;10.50;2.22;;;;;;;;;;5023183;28;20631;-61
2022/05/28 01:11:47;;;;;;;14.32;2.90;;;;;;;;;;4996718;28;20208;-61
2022/05/28 01:14:18;;;;;;;15.15;3.40;;;;;;;;;;5009211;28;20220;-61
2022/05/28 01:16:44;;;;;;;15.63;2.83;;;;;;;;;;5022359;28;20209;-61
2022/05/28 01:19:13;;;;;;;13.27;2.45;;;;;;;;;;4984480;28;20214;-61
2022/05/28 01:21:41;;;;;;;13.27;2.60;;;;;;;;;;5022044;28;20211;-61
2022/05/28 01:24:16;;;;;;;13.60;2.45;;;;;;;;;;5015005;28;20235;-61
2022/05/28 01:26:52;;;;;;;13.93;2.65;;;;;;;;;;4998397;28;20220;-61
2022/05/28 01:29:18;;;;;;;12.60;2.67;;;;;;;;;;5021398;28;20209;-61
2022/05/28 01:31:43;;;;;;;16.02;2.88;;;;;;;;;;5022828;28;20614;-61
2022/05/28 01:34:08;;;;;;;10.60;2.28;;;;;;;;;;4994657;28;20228;-61
2022/05/28 01:36:34;;;;;;;10.50;2.20;;;;;;;;;;5028672;28;20216;-60
2022/05/28 01:38:59;;;;;;;16.02;2.60;;;;;;;;;;5016004;28;20209;-61
2022/05/28 01:41:24;;;;;;;12.68;2.60;;;;;;;;;;5016394;28;20209;-61
2022/05/28 01:43:50;;;;;;;14.30;2.50;;;;;;;;;;5023033;28;20220;-61
2022/05/28 01:46:16;;;;;;;15.85;3.05;;;;;;;;;;5013122;28;20216;-61
2022/05/28 01:48:41;;;;;;;14.68;2.55;;;;;;;;;;5027313;28;20613;-61
2022/05/28 01:51:07;;;;;;;12.90;2.83;;;;;;;;;;5000083;28;20209;-61
2022/05/28 01:56:16;;;;;;;11.30;2.50;;;;;;;;;;5025485;28;20313;-61
2022/05/28 01:58:41;;;;;;;13.95;2.20;;;;;;;;;;5014126;28;20249;-61
2022/05/28 02:01:06;;;;;;;13.48;2.90;;;;;;;;;;4997683;28;20228;-61
2022/05/28 02:03:32;;;;;;;16.00;2.30;;;;;;;;;;5015882;28;20629;-61
2022/05/28 02:05:57;;;;;;;11.77;2.50;;;;;;;;;;5008167;28;20225;-61
2022/05/28 02:08:23;;;;;;;12.27;2.50;;;;;;;;;;5009150;28;20312;-61
2022/05/28 02:10:50;;;;;;;12.25;2.53;;;;;;;;;;5012193;28;20224;-61
2022/05/28 02:13:17;;;;;;;13.25;2.83;;;;;;;;;;5002141;28;20286;-61
2022/05/28 02:15:43;;;;;;;11.40;2.33;;;;;;;;;;5024100;28;20384;-61
2022/05/28 02:18:12;;;;;;;17.30;3.08;;;;;;;;;;4992843;28;20252;-61
2022/05/28 02:20:44;;;;;;;10.57;2.63;;;;;;;;;;4995315;28;20217;-60
2022/05/28 02:23:11;;;;;;;11.68;2.47;;;;;;;;;;4995161;28;20205;-61
2022/05/28 02:25:38;;;;;;;12.90;2.35;;;;;;;;;;5012659;28;20239;-61
2022/05/28 02:28:04;;;;;;;13.75;2.80;;;;;;;;;;5018930;28;20263;-61
2022/05/28 02:30:29;;;;;;;15.20;3.55;;;;;;;;;;4994125;28;20221;-61
2022/05/28 02:33:14;;;;;;;14.25;2.45;;;;;;;;;;5024712;28;20220;-61
2022/05/28 02:35:39;;;;;;;16.05;2.63;;;;;;;;;;5001647;28;20225;-61
2022/05/28 02:38:04;;;;;;;14.98;3.22;;;;;;;;;;4992244;28;20283;-61
2022/05/28 02:40:29;;;;;;;14.57;2.63;;;;;;;;;;4992612;28;20292;-61
2022/05/28 02:42:55;;;;;;;13.25;2.40;;;;;;;;;;5007453;28;20209;-61
2022/05/28 02:45:20;;;;;;;10.40;2.28;;;;;;;;;;5009863;28;20644;-61
2022/05/28 02:47:46;;;;;;;14.52;2.78;;;;;;;;;;5011846;28;20216;-61
2022/05/28 02:50:11;;;;;;;13.75;2.75;;;;;;;;;;5011785;28;20231;-61
2022/05/28 02:52:37;;;;;;;11.05;2.63;;;;;;;;;;5025811;28;20692;-61
2022/05/28 02:55:02;;;;;;;16.17;2.67;;;;;;;;;;4993797;28;20261;-61
2022/05/28 02:57:27;;;;;;;13.90;2.67;;;;;;;;;;5016458;28;20262;-61
2022/05/28 02:59:53;;;;;;;13.68;2.75;;;;;;;;;;5007550;28;20308;-61
2022/05/28 03:02:18;;;;;;;14.80;3.25;;;;;;;;;;4992842;28;20236;-61
2022/05/28 03:04:43;;;;;;;14.40;2.45;;;;;;;;;;5004732;28;20688;-61
2022/05/28 03:07:08;;;;;;;13.10;2.65;;;;;;;;;;4994327;28;20232;-61
2022/05/28 03:09:34;;;;;;;10.95;2.55;;;;;;;;;;5011813;28;20231;-60
2022/05/28 03:11:59;;;;;;;16.92;3.30;;;;;;;;;;5011629;28;20207;-61
2022/05/28 03:14:25;;;;;;;11.35;2.60;;;;;;;;;;5007183;28;20676;-61
2022/05/28 03:16:51;;;;;;;9.75;2.20;;;;;;;;;;5005435;28;20213;-61
2022/05/28 03:19:16;;;;;;;9.57;2.30;;;;;;;;;;4991020;28;20568;-61
2022/05/28 03:21:41;;;;;;;12.60;3.13;;;;;;;;;;4995962;28;20764;-61
2022/05/28 03:24:07;;;;;;;13.93;2.60;;;;;;;;;;5017718;28;20290;-61
2022/05/28 03:26:32;;;;;;;16.60;2.90;;;;;;;;;;5000140;28;20241;-61
2022/05/28 03:28:58;;;;;;;20.63;2.90;;;;;;;;;;5011509;28;20215;-62
2022/05/28 03:31:24;;;;;;;16.05;3.20;;;;;;;;;;4999625;28;20229;-61
2022/05/28 03:33:50;;;;;;;13.15;2.83;;;;;;;;;;5006160;28;20208;-61
2022/05/28 03:36:15;;;;;;;11.65;2.78;;;;;;;;;;4996512;28;20325;-61
2022/05/28 03:38:40;;;;;;;13.82;3.05;;;;;;;;;;5022496;28;20299;-61
2022/05/28 03:41:06;;;;;;;16.77;2.90;;;;;;;;;;5010129;28;20547;-61
2022/05/28 03:43:31;;;;;;;12.18;2.70;;;;;;;;;;5020147;28;20208;-61
2022/05/28 03:45:56;;;;;;;9.23;2.65;;;;;;;;;;5009775;28;20208;-61
2022/05/28 03:48:22;;;;;;;14.90;3.10;;;;;;;;;;5010112;28;20270;-61
2022/05/28 03:50:47;;;;;;;12.95;2.60;;;;;;;;;;5006552;28;20636;-62
2022/05/28 03:53:12;;;;;;;16.33;2.67;;;;;;;;;;4999087;28;20266;-61
2022/05/28 03:55:38;;;;;;;10.02;2.88;;;;;;;;;;4994681;28;20217;-61
2022/05/28 03:58:03;;;;;;;13.95;2.55;;;;;;;;;;5019317;28;20205;-62
2022/05/28 04:00:29;;;;;;;10.90;2.58;;;;;;;;;;5008986;28;20220;-61
2022/05/28 04:02:54;;;;;;;10.73;2.30;;;;;;;;;;5010233;28;20196;-61
2022/05/28 04:05:19;;;;;;;14.43;2.90;;;;;;;;;;5007743;28;20228;-61
2022/05/28 04:07:45;;;;;;;13.82;2.58;;;;;;;;;;4990248;28;20205;-63
2022/05/28 04:10:10;;;;;;;11.13;2.80;;;;;;;;;;4999647;28;20220;-61
2022/05/28 04:12:35;;;;;;;13.10;2.60;;;;;;;;;;5025409;28;20269;-61
2022/05/28 04:15:00;;;;;;;11.18;2.80;;;;;;;;;;5001936;28;20225;-61
2022/05/28 04:17:26;;;;;;;12.88;2.65;;;;;;;;;;5004507;28;20675;-61
2022/05/28 04:19:51;;;;;;;14.25;2.70;;;;;;;;;;4990928;28;20213;-61
2022/05/28 04:22:16;;;;;;;12.00;3.10;;;;;;;;;;4998129;28;20208;-61
2022/05/28 04:24:41;;;;;;;14.30;2.63;;;;;;;;;;5003037;28;20293;-62
2022/05/28 04:27:07;;;;;;;14.98;3.22;;;;;;;;;;5020436;28;20707;-61
2022/05/28 04:29:32;;;;;;;11.65;2.63;;;;;;;;;;5010043;28;20223;-61
2022/05/28 04:31:57;;;;;;;10.55;2.30;;;;;;;;;;5010322;28;20295;-61
2022/05/28 04:34:22;;;;;;;11.77;2.40;;;;;;;;;;5001132;28;20326;-61
2022/05/28 04:36:47;;;;;;;11.38;2.22;;;;;;;;;;5010309;28;20212;-61
2022/05/28 04:39:13;;;;;;;9.43;2.50;;;;;;;;;;4997198;28;20213;-61
2022/05/28 04:41:38;;;;;;;12.23;2.17;;;;;;;;;;4992306;28;20217;-62
2022/05/28 04:44:03;;;;;;;10.82;2.10;;;;;;;;;;5009413;28;20204;-61
2022/05/28 04:46:29;;;;;;;11.32;2.03;;;;;;;;;;4995214;28;20213;-61
2022/05/28 04:48:54;;;;;;;10.68;1.98;;;;;;;;;;5005779;28;20212;-61
2022/05/28 04:51:20;;;;;;;10.35;2.05;;;;;;;;;;5009504;28;20714;-62
2022/05/28 04:53:46;;;;;;;8.93;1.80;;;;;;;;;;5010683;28;20224;-61
2022/05/28 04:56:12;;;;;;;10.10;1.67;;;;;;;;;;5000932;28;20735;-61
2022/05/28 04:58:37;;;;;;;9.10;1.85;;;;;;;;;;5013855;28;20205;-62
2022/05/28 05:01:02;;;;;;;7.75;1.50;;;;;;;;;;5003864;28;20266;-62
2022/05/28 05:03:28;;;;;;;8.50;1.48;;;;;;;;;;5013335;28;20335;-61
2022/05/28 05:05:53;;;;;;;7.93;1.55;;;;;;;;;;4995005;28;20243;-61
2022/05/28 05:08:18;;;;;;;9.23;1.83;;;;;;;;;;5005794;28;20576;-62
2022/05/28 05:10:46;;;;;;;9.07;1.48;;;;;;;;;;4994716;28;20220;-61
2022/05/28 05:13:11;;;;;;;8.45;0.95;;;;;;;;;;4993793;28;20568;-61
2022/05/28 05:15:37;;;;;;;7.47;1.20;;;;;;;;;;5004647;28;20312;-61
2022/05/28 05:18:02;;;;;;;9.30;1.42;;;;;;;;;;5012074;28;20563;-61
2022/05/28 05:20:28;;;;;;;8.48;1.30;;;;;;;;;;5010329;28;20210;-61
2022/05/28 05:22:53;;;;;;;6.72;1.15;;;;;;;;;;4994321;28;20857;-61
2022/05/28 05:25:19;;;;;;;9.43;1.60;;;;;;;;;;5002889;28;20308;-61
2022/05/28 05:27:44;;;;;;;6.68;1.17;;;;;;;;;;5004888;28;20687;-61
2022/05/28 05:30:09;;;;;;;7.47;1.30;;;;;;;;;;5006001;28;20208;-62
2022/05/28 05:32:35;;;;;;;10.75;1.10;;;;;;;;;;5028290;28;20216;-61
2022/05/28 05:35:00;;;;;;;7.15;1.50;;;;;;;;;;5012753;28;20252;-62
2022/05/28 05:37:25;;;;;;;6.80;1.02;;;;;;;;;;4995500;28;20213;-62
2022/05/28 05:39:50;;;;;;;7.68;1.17;;;;;;;;;;5024418;28;20294;-61
2022/05/28 05:42:16;;;;;;;5.97;1.10;;;;;;;;;;5007847;28;20216;-61
2022/05/28 05:44:41;;;;;;;8.95;1.20;;;;;;;;;;5006220;28;20664;-62
2022/05/28 05:47:06;;;;;;;8.45;1.30;;;;;;;;;;5001189;28;20259;-62
2022/05/28 05:49:32;;;;;;;4.00;0.73;;;;;;;;;;5008299;28;20575;-62
2022/05/28 05:51:57;;;;;;;7.88;1.35;;;;;;;;;;5013901;28;20298;-62
2022/05/28 05:54:24;;;;;;;6.80;1.17;;;;;;;;;;5012083;28;20220;-62
2022/05/28 05:56:50;;;;;;;5.40;1.17;;;;;;;;;;5013234;28;20215;-62
2022/05/28 05:59:15;;;;;;;6.85;1.40;;;;;;;;;;4994621;28;20213;-62
2022/05/28 06:01:40;;;;;;;7.53;1.10;;;;;;;;;;5022928;28;20209;-62
2022/05/28 06:04:05;;;;;;;8.07;1.30;;;;;;;;;;5008581;28;20213;-62
2022/05/28 06:06:31;;;;;;;6.82;1.10;;;;;;;;;;5004253;28;20691;-61
2022/05/28 06:08:56;;;;;;;5.97;1.30;;;;;;;;;;5006617;28;20227;-61
2022/05/28 06:11:21;;;;;;;10.05;1.50;;;;;;;;;;5012569;28;20216;-62
2022/05/28 06:13:46;;;;;;;6.85;1.35;;;;;;;;;;5000081;28;20211;-62
2022/05/28 06:16:12;;;;;;;6.03;1.27;;;;;;;;;;5020754;28;20230;-62
2022/05/28 06:18:37;;;;;;;5.93;1.33;;;;;;;;;;5005622;28;20679;-62
2022/05/28 06:21:02;;;;;;;6.45;1.25;;;;;;;;;;5003767;28;20206;-62
2022/05/28 06:23:28;;;;;;;8.90;1.05;;;;;;;;;;4992808;28;20411;-61
2022/05/28 06:25:53;;;;;;;8.40;1.25;;;;;;;;;;5015692;28;20300;-61
2022/05/28 06:28:18;;;;;;;7.35;1.45;;;;;;;;;;5006085;28;20220;-62
2022/05/28 06:30:45;;;;;;;8.38;1.50;;;;;;;;;;4992493;28;20304;-62
2022/05/28 06:33:11;;;;;;;5.75;1.00;;;;;;;;;;5022273;28;20328;-62
2022/05/28 06:35:36;;;;;;;10.07;1.40;;;;;;;;;;5011392;28;20739;-61
2022/05/28 06:38:01;;;;;;;7.50;1.10;;;;;;;;;;4997318;28;20213;-62
2022/05/28 06:40:27;;;;;;;7.72;1.20;;;;;;;;;;5009511;28;20223;-62
2022/05/28 06:42:55;;;;;;;5.65;1.25;;;;;;;;;;5012239;28;20239;-61
2022/05/28 06:45:20;;;;;;;7.65;1.60;;;;;;;;;;5008353;28;20209;-62
2022/05/28 06:47:45;;;;;;;6.63;1.50;;;;;;;;;;5027304;28;20223;-62
2022/05/28 06:53:08;;;;;;;8.68;1.27;;;;;;;;;;5003214;28;20612;-62
2022/05/28 06:55:34;;;;;;;9.73;1.55;;;;;;;;;;4999732;28;20232;-62
2022/05/28 06:57:59;;;;;;;7.65;1.40;;;;;;;;;;5005899;28;20287;-62
2022/05/28 07:00:24;;;;;;;9.38;1.50;;;;;;;;;;4991566;28;20209;-61
2022/05/28 07:02:49;;;;;;;7.10;1.17;;;;;;;;;;4992412;28;20217;-61
2022/05/28 07:05:15;;;;;;;7.55;1.30;;;;;;;;;;4996718;28;20216;-61
2022/05/28 07:07:40;;;;;;;6.25;1.15;;;;;;;;;;5001572;28;20211;-62
2022/05/28 07:10:06;;;;;;;6.38;1.52;;;;;;;;;;5015790;28;20202;-62
2022/05/28 07:12:31;;;;;;;8.95;2.05;;;;;;;;;;5006729;28;20205;-62
2022/05/28 07:14:57;;;;;;;7.38;1.60;;;;;;;;;;5011474;28;20220;-62
2022/05/28 07:17:22;;;;;;;7.35;1.25;;;;;;;;;;5002641;28;20435;-63
2022/05/28 07:19:48;;;;;;;6.28;1.30;;;;;;;;;;4994571;28;20217;-62
2022/05/28 07:22:13;;;;;;;5.63;1.10;;;;;;;;;;5011032;28;20299;-62
2022/05/28 07:24:38;;;;;;;8.00;1.80;;;;;;;;;;5011785;28;20205;-62
2022/05/28 07:27:04;;;;;;;8.13;1.27;;;;;;;;;;4998909;28;20212;-62
2022/05/28 07:29:29;;;;;;;6.78;1.23;;;;;;;;;;4992658;28;20232;-62
2022/05/28 07:31:54;;;;;;;9.30;1.55;;;;;;;;;;4996143;28;20273;-62
2022/05/28 07:34:19;;;;;;;7.38;1.40;;;;;;;;;;5009427;28;20338;-62
2022/05/28 07:36:45;;;;;;;11.40;1.58;;;;;;;;;;5001300;28;20217;-62
2022/05/28 07:39:10;;;;;;;9.88;1.65;;;;;;;;;;4991789;28;20241;-61
2022/05/28 07:41:36;;;;;;;5.78;1.40;;;;;;;;;;5026381;28;20663;-62
2022/05/28 07:44:01;;;;;;;6.20;1.60;;;;;;;;;;5010765;28;20236;-62
2022/05/28 07:46:27;;;;;;;9.95;1.42;;;;;;;;;;5006625;28;20242;-62
2022/05/28 07:48:53;;;;;;;9.45;1.58;;;;;;;;;;4991323;28;20205;-62
2022/05/28 07:51:18;;;;;;;6.80;1.27;;;;;;;;;;4998819;28;20679;-62
2022/05/28 07:53:43;;;;;;;9.30;1.77;;;;;;;;;;5025911;28;20694;-62
2022/05/28 07:56:09;;;;;;;7.78;1.35;;;;;;;;;;5003042;28;20688;-62
2022/05/28 07:58:34;;;;;;;7.80;1.23;;;;;;;;;;5007464;28;20212;-61
2022/05/28 08:00:59;;;;;;;11.32;1.50;;;;;;;;;;5010478;28;20200;-62
2022/05/28 08:03:25;;;;;;;9.38;1.90;;;;;;;;;;5013904;28;20224;-61
2022/05/28 08:05:50;;;;;;;11.73;1.77;;;;;;;;;;4991554;28;20205;-61
2022/05/28 08:08:16;;;;;;;7.53;1.23;;;;;;;;;;5008855;28;20229;-62
2022/05/28 08:10:41;;;;;;;7.82;1.60;;;;;;;;;;5008852;28;20216;-62
2022/05/28 08:13:07;;;;;;;7.55;1.45;;;;;;;;;;5003075;28;20217;-61
2022/05/28 08:15:33;;;;;;;8.60;1.55;;;;;;;;;;5012402;28;20213;-61
2022/05/28 08:17:58;;;;;;;8.20;1.52;;;;;;;;;;4997007;28;20660;-62
2022/05/28 08:23:08;;;;;;;10.57;1.70;;;;;;;;;;4997105;28;20296;-61
2022/05/28 08:23:09;;;;;;;9.10;1.70;;;;;;;;;;5005223;28;20638;-61
2022/05/28 08:25:34;;;;;;;11.68;1.50;;;;;;;;;;5025722;28;20278;-62
2022/05/28 08:27:59;;;;;;;10.38;1.77;;;;;;;;;;5006368;28;20270;-61
2022/05/28 08:30:25;;;;;;;11.70;1.80;;;;;;;;;;5004486;28;20219;-61
2022/05/28 08:32:50;;;;;;;10.43;1.60;;;;;;;;;;5014243;28;20215;-62
2022/05/28 08:35:15;;;;;;;10.50;2.08;;;;;;;;;;5012649;28;20282;-62
2022/05/28 08:37:40;;;;;;;11.43;1.73;;;;;;;;;;5012122;28;20216;-61
2022/05/28 08:40:06;;;;;;;7.68;1.40;;;;;;;;;;5006692;28;20220;-62
2022/05/28 08:42:31;;;;;;;9.38;1.60;;;;;;;;;;4999860;28;20208;-62
2022/05/28 08:44:56;;;;;;;8.48;1.50;;;;;;;;;;5014158;28;20208;-62
2022/05/28 08:47:24;;;;;;;11.98;1.90;;;;;;;;;;5010735;28;20224;-62
2022/05/28 08:49:49;;;;;;;9.48;1.63;;;;;;;;;;5010922;28;20205;-62
2022/05/28 08:52:26;;;;;;;12.10;1.83;;;;;;;;;;5009495;28;20707;-62
2022/05/28 08:54:58;;;;;;;9.77;1.70;;;;;;;;;;5024765;28;20236;-61
2022/05/28 08:57:34;;;;;;;10.23;1.85;;;;;;;;;;5010644;28;20214;-61
2022/05/28 09:00:00;;;;;;;9.43;1.73;;;;;;;;;;5009485;28;20225;-62
2022/05/28 09:02:35;;;;;;;8.07;1.73;;;;;;;;;;5025125;28;20212;-62
2022/05/28 09:05:00;;;;;;;9.15;1.70;;;;;;;;;;5025337;28;20223;-62
2022/05/28 09:07:25;;;;;;;9.25;1.42;;;;;;;;;;4992525;28;20209;-62
2022/05/28 09:09:51;;;;;;;6.82;1.48;;;;;;;;;;5013060;28;20216;-62
2022/05/28 09:12:17;;;;;;;7.78;1.55;;;;;;;;;;4992464;28;20217;-62
2022/05/28 09:14:42;;;;;;;9.13;1.58;;;;;;;;;;5011280;28;20216;-62
2022/05/28 09:17:09;;;;;;;7.53;1.30;;;;;;;;;;5002795;28;20205;-62
2022/05/28 09:19:35;;;;;;;7.80;1.70;;;;;;;;;;4998438;28;20695;-61
2022/05/28 09:22:01;;;;;;;6.07;1.30;;;;;;;;;;5008989;28;20672;-62
2022/05/28 09:24:27;;;;;;;5.80;1.20;;;;;;;;;;5012621;28;20215;-62
2022/05/28 09:26:55;;;;;;;7.65;1.48;;;;;;;;;;5010244;28;20240;-62
2022/05/28 09:29:26;;;;;;;8.40;1.45;;;;;;;;;;5020955;28;20225;-62
2022/05/28 09:31:59;;;;;;;7.97;1.30;;;;;;;;;;5013513;28;20196;-61
2022/05/28 09:34:30;;;;;;;6.63;1.40;;;;;;;;;;5013115;28;20208;-62
2022/05/28 09:36:59;;;;;;;8.18;1.73;;;;;;;;;;5028850;28;20725;-62
2022/05/28 09:39:29;;;;;;;6.15;1.30;;;;;;;;;;5007906;28;20289;-62
2022/05/28 09:42:13;;;;;;;3.92;1.10;;;;;;;;;;5008834;28;20220;-62
2022/05/28 09:44:42;;;;;;;6.40;1.20;;;;;;;;;;5010458;28;20219;-62
2022/05/28 09:47:09;;;;;;;4.68;0.85;;;;;;;;;;5012544;28;20220;-62
2022/05/28 09:49:34;;;;;;;5.07;1.05;;;;;;;;;;5008610;28;20224;-62
2022/05/28 09:52:06;;;;;;;7.10;1.33;;;;;;;;;;5003269;28;20209;-62
2022/05/28 09:54:33;;;;;;;6.65;1.42;;;;;;;;;;4992583;28;20221;-62
2022/05/28 09:57:00;;;;;;;6.18;1.30;;;;;;;;;;4993852;28;20220;-62
2022/05/28 09:59:34;;;;;;;3.55;0.90;;;;;;;;;;5016013;28;20544;-61
2022/05/28 10:02:07;;;;;;;2.92;1.13;;;;;;;;;;5015977;28;20216;-62
2022/05/28 10:04:32;;;;;;;3.85;1.20;;;;;;;;;;5012909;28;20212;-62
2022/05/28 10:06:59;;;;;;;5.57;1.15;;;;;;;;;;5007958;28;20706;-62
2022/05/28 10:09:29;;;;;;;4.85;1.10;;;;;;;;;;5008703;28;20220;-62
2022/05/28 10:11:56;;;;;;;6.63;1.45;;;;;;;;;;5002414;28;20295;-61
2022/05/28 10:14:22;;;;;;;5.90;1.52;;;;;;;;;;4991336;28;20243;-62
2022/05/28 10:16:48;;;;;;;7.95;1.33;;;;;;;;;;5004965;28;20232;-62
2022/05/28 10:19:14;;;;;;;7.35;1.23;;;;;;;;;;5020735;28;20209;-62
2022/05/28 10:21:40;;;;;;;6.22;1.65;;;;;;;;;;4995807;28;20212;-62
2022/05/28 10:24:10;;;;;;;7.18;1.85;;;;;;;;;;5012395;28;20211;-62
2022/05/28 10:26:46;;;;;;;8.93;1.65;;;;;;;;;;5011863;28;20224;-62
2022/05/28 10:29:18;;;;;;;7.28;1.60;;;;;;;;;;5021738;28;20691;-62
2022/05/28 10:31:44;;;;;;;8.35;1.80;;;;;;;;;;5018114;28;20752;-61
2022/05/28 10:34:19;;;;;;;7.72;1.92;;;;;;;;;;4998359;28;20213;-62
2022/05/28 10:36:45;;;;;;;7.35;1.73;;;;;;;;;;5007181;28;20225;-62
2022/05/28 10:39:12;;;;;;;6.10;1.70;;;;;;;;;;5010501;28;20219;-61
2022/05/28 10:41:37;;;;;;;7.50;1.58;;;;;;;;;;5019544;28;20212;-61
2022/05/28 10:44:03;;;;;;;8.20;1.92;;;;;;;;;;5005570;28;20210;-61
2022/05/28 10:46:32;;;;;;;5.70;1.65;;;;;;;;;;5012368;28;20302;-62
2022/05/28 10:49:09;;;;;;;7.53;1.40;;;;;;;;;;5010152;28;20291;-62
2022/05/28 10:51:55;;;;;;;7.90;1.80;;;;;;;;;;5015972;28;20220;-62
2022/05/28 10:54:36;;;;;;;7.15;1.60;;;;;;;;;;4997073;28;20297;-62
2022/05/28 10:57:03;;;;;;;7.78;1.70;;;;;;;;;;5010799;28;20315;-62
2022/05/28 10:59:38;;;;;;;6.82;1.58;;;;;;;;;;4994450;28;20296;-62
2022/05/28 11:02:07;;;;;;;4.93;1.02;;;;;;;;;;5009357;28;20674;-61
2022/05/28 11:04:39;;;;;;;5.20;1.17;;;;;;;;;;5006911;28;20205;-62
2022/05/28 11:07:13;;;;;;;8.38;1.60;;;;;;;;;;5025883;28;20209;-62
2022/05/28 11:09:41;;;;;;;6.32;1.35;;;;;;;;;;5012110;28;20489;-62
2022/05/28 11:12:15;;;;;;;7.07;1.27;;;;;;;;;;5023309;28;20213;-62
2022/05/28 11:14:49;;;;;;;8.82;1.50;;;;;;;;;;5016480;28;20263;-62
2022/05/28 11:17:22;;;;;;;8.20;1.50;;;;;;;;;;4992593;28;20246;-62
2022/05/28 11:19:50;;;;;;;7.50;1.52;;;;;;;;;;4990541;28;20213;-62
2022/05/28 11:22:20;;;;;;;7.15;1.30;;;;;;;;;;4990908;28;20237;-61
2022/05/28 11:24:50;;;;;;;4.22;1.17;;;;;;;;;;4997733;28;20209;-62
2022/05/28 11:27:25;;;;;;;5.47;1.23;;;;;;;;;;5014341;28;20208;-63
2022/05/28 11:29:53;;;;;;;10.95;1.60;;;;;;;;;;4996521;28;20216;-61
2022/05/28 11:32:20;;;;;;;8.98;1.30;;;;;;;;;;4997887;28;20208;-61
2022/05/28 11:35:00;;;;;;;4.63;1.05;;;;;;;;;;4997481;28;20325;-62
2022/05/28 11:37:27;;;;;;;5.88;1.23;;;;;;;;;;5017893;28;20266;-61
2022/05/28 11:39:56;;;;;;;6.00;1.20;;;;;;;;;;5026243;28;20208;-62
2022/05/28 11:42:22;;;;;;;5.78;1.20;;;;;;;;;;5010252;28;20239;-61
2022/05/28 11:44:50;;;;;;;5.03;1.15;;;;;;;;;;5009555;28;20678;-61
2022/05/28 11:47:29;;;;;;;6.68;1.48;;;;;;;;;;5010235;28;20222;-62
2022/05/28 11:52:42;;;;;;;5.97;1.55;;;;;;;;;;5001987;28;20239;-62
2022/05/28 11:55:10;;;;;;;7.93;1.90;;;;;;;;;;4994343;28;20248;-61
2022/05/28 11:57:38;;;;;;;7.60;1.63;;;;;;;;;;5012501;28;20302;-62
2022/05/28 12:00:05;;;;;;;6.63;1.35;;;;;;;;;;5005696;28;20809;-62
2022/05/28 12:02:32;;;;;;;5.70;1.40;;;;;;;;;;5008344;28;20231;-62
2022/05/28 12:04:57;;;;;;;7.07;1.60;;;;;;;;;;5020066;28;20204;-62
2022/05/28 12:07:29;;;;;;;6.50;1.20;;;;;;;;;;4998101;28;20842;-61
2022/05/28 12:09:55;;;;;;;6.85;1.10;;;;;;;;;;5025903;28;20213;-62
2022/05/28 12:12:22;;;;;;;7.22;1.40;;;;;;;;;;5006571;28;20297;-61
2022/05/28 12:14:48;;;;;;;8.13;1.40;;;;;;;;;;5010137;28;20208;-61
2022/05/28 12:17:19;;;;;;;5.57;1.27;;;;;;;;;;5000859;28;20212;-61
2022/05/28 12:19:46;;;;;;;6.15;1.38;;;;;;;;;;4991670;28;20244;-62
2022/05/28 12:22:22;;;;;;;6.40;1.40;;;;;;;;;;5005450;28;20733;-61
2022/05/28 12:24:55;;;;;;;7.95;1.55;;;;;;;;;;5007390;28;20209;-62
2022/05/28 12:27:22;;;;;;;5.90;0.98;;;;;;;;;;5007966;28;20562;-62
2022/05/28 12:29:59;;;;;;;6.85;1.40;;;;;;;;;;5010778;28;20346;-61
2022/05/28 12:32:25;;;;;;;4.70;1.00;;;;;;;;;;5016058;28;20594;-61
2022/05/28 12:34:50;;;;;;;4.90;1.20;;;;;;;;;;5002083;28;20684;-61
2022/05/28 12:37:16;;;;;;;6.63;1.08;;;;;;;;;;4984823;28;20224;-61
2022/05/28 12:39:44;;;;;;;5.95;1.00;;;;;;;;;;4979736;28;20556;-61
2022/05/28 12:42:17;;;;;;;6.93;1.30;;;;;;;;;;4997023;28;20227;-62
2022/05/28 12:44:47;;;;;;;5.53;1.23;;;;;;;;;;5002250;28;20629;-61
2022/05/28 12:47:13;;;;;;;5.90;1.52;;;;;;;;;;4985189;28;20228;-62
2022/05/28 12:49:41;;;;;;;4.75;1.25;;;;;;;;;;4987488;28;20213;-61
2022/05/28 12:52:25;;;;;;;6.22;1.23;;;;;;;;;;5003163;28;20339;-61
2022/05/28 12:55:03;;;;;;;6.20;1.52;;;;;;;;;;4984884;28;20778;-62
2022/05/28 12:57:30;;;;;;;4.10;1.35;;;;;;;;;;4977170;28;20239;-61
2022/05/28 13:00:06;;;;;;;5.97;1.30;;;;;;;;;;4994782;28;20770;-62
2022/05/28 13:02:34;;;;;;;5.63;1.40;;;;;;;;;;4995344;28;20213;-62
2022/05/28 13:05:00;;;;;;;5.75;1.30;;;;;;;;;;4984203;28;20217;-62
2022/05/28 13:07:28;;;;;;;5.25;1.40;;;;;;;;;;4995420;28;20565;-61
2022/05/28 13:10:02;;;;;;;5.75;1.65;;;;;;;;;;5018686;28;20208;-62
2022/05/28 13:12:30;;;;;;;6.68;1.33;;;;;;;;;;4987580;28;20551;-62
2022/05/28 13:15:08;;;;;;;8.10;1.48;;;;;;;;;;4986399;28;20668;-62
2022/05/28 13:17:48;;;;;;;5.97;1.48;;;;;;;;;;4987848;28;20270;-62
2022/05/28 13:20:17;;;;;;;7.13;1.60;;;;;;;;;;4981159;28;20552;-61
2022/05/28 13:23:01;;;;;;;8.13;1.55;;;;;;;;;;4979939;28;20213;-62
2022/05/28 13:25:30;;;;;;;9.27;1.67;;;;;;;;;;4982717;28;20691;-61
2022/05/28 13:28:04;;;;;;;6.15;1.52;;;;;;;;;;4987311;28;20577;-61
2022/05/28 13:30:34;;;;;;;8.55;2.00;;;;;;;;;;5005169;28;20539;-61
2022/05/28 13:33:06;;;;;;;7.35;1.58;;;;;;;;;;5009265;28;20292;-62
2022/05/28 13:35:41;;;;;;;7.88;1.50;;;;;;;;;;5000772;28;20221;-61
2022/05/28 13:38:06;;;;;;;8.43;1.63;;;;;;;;;;4992170;28;20547;-61
2022/05/28 13:40:32;;;;;;;9.20;1.42;;;;;;;;;;5026541;28;20208;-62
2022/05/28 13:42:59;;;;;;;9.13;1.50;;;;;;;;;;4998204;28;20198;-61
2022/05/28 13:45:25;;;;;;;6.18;1.40;;;;;;;;;;5011936;28;20568;-61
2022/05/28 13:47:51;;;;;;;8.55;1.90;;;;;;;;;;5008963;28;20747;-61
2022/05/28 13:50:16;;;;;;;9.20;1.63;;;;;;;;;;4998967;28;20235;-62
2022/05/28 13:52:42;;;;;;;8.20;1.50;;;;;;;;;;5013131;28;20209;-61
2022/05/28 13:55:08;;;;;;;6.60;1.50;;;;;;;;;;5009244;28;20754;-61
2022/05/28 13:57:34;;;;;;;8.70;1.40;;;;;;;;;;5001548;28;20212;-61
2022/05/28 13:59:59;;;;;;;6.20;1.38;;;;;;;;;;4993251;28;20218;-61
2022/05/28 14:02:24;;;;;;;6.38;1.40;;;;;;;;;;4995441;28;20209;-61
2022/05/28 14:04:50;;;;;;;7.50;1.40;;;;;;;;;;5025204;28;20209;-61
2022/05/28 14:07:19;;;;;;;6.22;1.20;;;;;;;;;;5000806;28;20240;-61
2022/05/28 14:09:46;;;;;;;6.85;1.38;;;;;;;;;;5013453;28;20228;-62
2022/05/28 14:12:11;;;;;;;5.95;1.20;;;;;;;;;;5011506;28;20220;-61
2022/05/28 14:14:38;;;;;;;7.88;1.17;;;;;;;;;;4996430;28;20213;-62
2022/05/28 14:17:03;;;;;;;6.57;1.25;;;;;;;;;;4998162;28;20708;-61
2022/05/28 14:19:31;;;;;;;8.95;1.65;;;;;;;;;;5008347;28;20225;-62
2022/05/28 14:21:57;;;;;;;6.22;1.10;;;;;;;;;;5018799;28;20529;-62
2022/05/28 14:24:30;;;;;;;7.75;1.55;;;;;;;;;;5027345;28;20652;-61
2022/05/28 14:26:56;;;;;;;6.10;1.27;;;;;;;;;;5004083;28;20257;-61
2022/05/28 14:29:23;;;;;;;9.88;1.80;;;;;;;;;;5022853;28;20221;-61
2022/05/28 14:31:49;;;;;;;6.35;1.35;;;;;;;;;;5024315;28;20196;-62
2022/05/28 14:34:16;;;;;;;8.15;1.40;;;;;;;;;;5012813;28;20286;-62
2022/05/28 14:36:47;;;;;;;6.90;1.38;;;;;;;;;;5014048;28;20718;-62
2022/05/28 14:39:13;;;;;;;6.55;1.63;;;;;;;;;;5014178;28;20212;-62
2022/05/28 14:41:42;;;;;;;8.02;1.40;;;;;;;;;;5009396;28;20570;-61
2022/05/28 14:44:10;;;;;;;8.35;1.67;;;;;;;;;;5025218;28;20240;-61
2022/05/28 14:46:36;;;;;;;7.05;1.60;;;;;;;;;;4999324;28;20295;-62